createdAt,value
2022-12-05T00:01:18.943Z,102221.84
2022-12-05T00:03:48.955Z,102221.97
2022-12-05T00:06:17.048Z,102223.75
2022-12-05T00:08:45.200Z,102216.69
2022-12-05T00:11:14.300Z,102198.31
2022-12-05T00:13:42.709Z,102211.66
2022-12-05T00:16:11.716Z,102204.31
2022-12-05T00:18:40.030Z,102215.97
2022-12-05T00:21:14.307Z,102197.50
2022-12-05T00:23:42.115Z,102204.44
2022-12-05T00:26:10.238Z,102197.50
2022-12-05T00:28:38.187Z,102199.75
2022-12-05T00:31:08.287Z,102209.38
2022-12-05T00:33:36.532Z,102192.44
2022-12-05T00:36:05.996Z,102203.25
2022-12-05T00:38:35.121Z,102201.69
2022-12-05T00:41:04.459Z,102218.09
2022-12-05T00:43:32.494Z,102209.94
2022-12-05T00:46:02.706Z,102199.75
2022-12-05T00:48:30.528Z,102216.44
2022-12-05T00:51:03.040Z,102202.41
2022-12-05T00:53:30.994Z,102209.38
2022-12-05T00:56:02.850Z,102200.34
2022-12-05T00:58:30.775Z,102199.50
2022-12-05T01:00:58.494Z,102203.84
2022-12-05T01:03:26.161Z,102200.81
2022-12-05T01:05:53.861Z,102211.53
2022-12-05T01:08:21.467Z,102198.19
2022-12-05T01:10:54.695Z,102199.13
2022-12-05T01:13:24.216Z,102204.41
2022-12-05T01:15:52.604Z,102204.31
2022-12-05T01:18:21.011Z,102216.44
2022-12-05T01:20:49.089Z,102197.09
2022-12-05T01:23:17.645Z,102196.25
2022-12-05T01:25:48.038Z,102189.16
2022-12-05T01:28:16.614Z,102189.16
2022-12-05T01:30:47.656Z,102178.59
2022-12-05T01:33:15.914Z,102187.50
2022-12-05T01:35:44.032Z,102182.31
2022-12-05T01:38:13.427Z,102193.59
2022-12-05T01:40:41.496Z,102199.88
2022-12-05T01:43:15.847Z,102183.28
2022-12-05T01:45:46.892Z,102187.84
2022-12-05T01:48:19.340Z,102198.19
2022-12-05T01:50:48.556Z,102192.03
2022-12-05T01:53:17.240Z,102194.94
2022-12-05T01:55:46.107Z,102189.78
2022-12-05T01:58:13.830Z,102185.34
2022-12-05T02:00:41.441Z,102194.09
2022-12-05T02:03:15.522Z,102181.03
2022-12-05T02:05:43.255Z,102179.31
2022-12-05T02:08:12.145Z,102179.31
2022-12-05T02:10:43.056Z,102179.09
2022-12-05T02:13:27.444Z,102172.97
2022-12-05T02:16:02.751Z,102173.34
2022-12-05T02:18:46.514Z,102158.34
2022-12-05T02:21:47.487Z,102167.09
2022-12-05T02:24:53.690Z,102169.84
2022-12-05T02:27:41.081Z,102162.06
2022-12-05T02:30:12.980Z,102182.34
2022-12-05T02:32:53.512Z,102162.06
2022-12-05T02:35:33.285Z,102167.59
2022-12-05T02:38:12.882Z,102177.41
2022-12-05T02:40:46.717Z,102173.13
2022-12-05T02:43:18.228Z,102175.63
2022-12-05T02:45:51.076Z,102172.03
2022-12-05T02:48:19.911Z,102176.59
2022-12-05T02:50:49.948Z,102178.41
2022-12-05T02:53:18.806Z,102203.97
2022-12-05T02:55:47.513Z,102162.66
2022-12-05T02:58:20.503Z,102160.03
2022-12-05T03:00:51.943Z,102152.00
2022-12-05T03:03:22.257Z,102156.53
2022-12-05T03:05:56.960Z,102150.69
2022-12-05T03:08:29.083Z,102161.09
2022-12-05T03:10:59.649Z,102154.97
2022-12-05T03:13:30.499Z,102158.38
2022-12-05T03:16:05.076Z,102148.75
2022-12-05T03:18:38.451Z,102139.97
2022-12-05T03:21:12.036Z,102129.31
2022-12-05T03:26:18.005Z,102151.00
2022-12-05T03:28:56.682Z,102147.78
2022-12-05T03:31:35.462Z,102164.13
2022-12-05T03:34:06.463Z,102141.31
2022-12-05T03:36:40.737Z,102130.84
2022-12-05T03:39:12.977Z,102135.19
2022-12-05T03:41:47.441Z,102126.66
2022-12-05T03:44:22.950Z,102149.72
2022-12-05T03:46:56.056Z,102146.84
2022-12-05T03:49:34.141Z,102137.22
2022-12-05T03:52:08.127Z,102138.31
2022-12-05T03:54:40.060Z,102129.53
2022-12-05T03:57:14.274Z,102123.41
2022-12-05T03:59:47.420Z,102136.06
2022-12-05T04:02:21.582Z,102122.00
2022-12-05T04:04:55.666Z,102125.72
2022-12-05T04:07:24.963Z,102146.72
2022-12-05T04:09:58.680Z,102123.81
2022-12-05T04:12:31.215Z,102128.22
2022-12-05T04:15:01.271Z,102137.72
2022-12-05T04:17:38.019Z,102120.91
2022-12-05T04:20:31.541Z,102125.34
2022-12-05T04:23:00.098Z,102136.06
2022-12-05T04:25:34.467Z,102132.44
2022-12-05T04:28:20.978Z,102134.34
2022-12-05T04:30:54.645Z,102129.09
2022-12-05T04:33:30.802Z,102143.22
2022-12-05T04:36:03.439Z,102124.75
2022-12-05T04:38:37.236Z,102125.00
2022-12-05T04:41:08.396Z,102137.34
2022-12-05T04:43:40.169Z,102123.56
2022-12-05T04:46:12.583Z,102139.53
2022-12-05T04:48:46.404Z,102125.72
2022-12-05T04:51:18.811Z,102137.34
2022-12-05T04:53:49.083Z,102123.31
2022-12-05T04:56:21.696Z,102122.38
2022-12-05T04:58:49.339Z,102123.06
2022-12-05T05:01:23.176Z,102146.00
2022-12-05T05:03:56.924Z,102130.41
2022-12-05T05:06:24.667Z,102117.31
2022-12-05T05:08:53.751Z,102134.13
2022-12-05T05:11:23.811Z,102132.56
2022-12-05T05:13:51.691Z,102137.84
2022-12-05T05:16:21.613Z,102140.72
2022-12-05T05:18:50.562Z,102122.13
2022-12-05T05:21:22.675Z,102128.59
2022-12-05T05:23:50.719Z,102139.06
2022-12-05T05:26:19.563Z,102138.06
2022-12-05T05:28:47.418Z,102141.69
2022-12-05T05:31:15.953Z,102148.03
2022-12-05T05:33:43.627Z,102141.78
2022-12-05T05:36:13.803Z,102143.50
2022-12-05T05:38:44.631Z,102144.44
2022-12-05T05:41:14.704Z,102139.88
2022-12-05T05:43:43.187Z,102153.06
2022-12-05T05:46:11.805Z,102138.91
2022-12-05T05:48:39.767Z,102148.53
2022-12-05T05:51:09.399Z,102148.53
2022-12-05T05:53:37.435Z,102144.81
2022-12-05T05:56:08.759Z,102163.16
2022-12-05T05:58:36.426Z,102158.72
2022-12-05T06:01:05.192Z,102150.78
2022-12-05T06:03:32.916Z,102147.22
2022-12-05T06:06:02.740Z,102152.25
2022-12-05T06:08:30.391Z,102140.84
2022-12-05T06:10:58.111Z,102147.81
2022-12-05T06:13:27.390Z,102146.13
2022-12-05T06:15:55.000Z,102139.28
2022-12-05T06:18:22.760Z,102147.31
2022-12-05T06:20:54.157Z,102143.00
2022-12-05T06:23:21.883Z,102143.13
2022-12-05T06:25:50.043Z,102137.97
2022-12-05T06:28:18.424Z,102136.28
2022-12-05T06:30:47.915Z,102136.41
2022-12-05T06:33:16.087Z,102138.22
2022-12-05T06:35:43.882Z,102151.63
2022-12-05T06:38:12.121Z,102135.66
2022-12-05T06:40:41.115Z,102132.19
2022-12-05T06:43:08.794Z,102141.09
2022-12-05T06:45:38.559Z,102139.53
2022-12-05T06:48:08.107Z,102133.41
2022-12-05T06:50:35.698Z,102136.88
2022-12-05T06:53:03.260Z,102138.91
2022-12-05T06:55:30.842Z,102144.06
2022-12-05T06:57:58.503Z,102144.19
2022-12-05T07:00:44.177Z,102141.56
2022-12-05T07:03:13.263Z,102145.16
2022-12-05T07:05:40.844Z,102139.88
2022-12-05T07:08:08.511Z,102146.00
2022-12-05T07:10:36.157Z,102131.00
2022-12-05T07:13:03.943Z,102160.97
2022-12-05T07:15:31.548Z,102148.03
2022-12-05T07:17:59.175Z,102133.75
2022-12-05T07:20:38.397Z,102139.16
2022-12-05T07:23:15.707Z,102135.53
2022-12-05T07:25:43.360Z,102137.22
2022-12-05T07:28:10.922Z,102131.09
2022-12-05T07:30:38.523Z,102143.22
2022-12-05T07:33:06.118Z,102137.13
2022-12-05T07:35:35.050Z,102141.44
2022-12-05T07:38:02.662Z,102128.22
2022-12-05T07:40:30.298Z,102134.72
2022-12-05T07:42:57.903Z,102136.28
2022-12-05T07:45:25.495Z,102121.41
2022-12-05T07:47:53.148Z,102123.31
2022-12-05T07:50:20.837Z,102138.19
2022-12-05T07:52:50.352Z,102132.19
2022-12-05T07:55:18.021Z,102121.78
2022-12-05T07:57:45.598Z,102133.13
2022-12-05T08:00:14.807Z,102139.16
2022-12-05T08:02:42.453Z,102133.88
2022-12-05T08:05:10.415Z,102131.34
2022-12-05T08:07:38.062Z,102129.69
2022-12-05T08:10:08.955Z,102126.19
2022-12-05T08:12:37.851Z,102122.59
2022-12-05T08:15:06.531Z,102126.19
2022-12-05T08:17:34.584Z,102115.75
2022-12-05T08:20:02.566Z,102123.56
2022-12-05T08:22:30.201Z,102134.22
2022-12-05T08:24:57.800Z,102136.16
2022-12-05T08:27:26.793Z,102148.50
2022-12-05T08:29:55.707Z,102132.56
2022-12-05T08:32:23.503Z,102140.47
2022-12-05T08:34:51.216Z,102135.91
2022-12-05T08:37:19.004Z,102135.06
2022-12-05T08:39:46.568Z,102125.34
2022-12-05T08:42:14.186Z,102133.28
2022-12-05T08:44:43.150Z,102155.09
2022-12-05T08:47:10.760Z,102140.81
2022-12-05T08:49:38.351Z,102131.25
2022-12-05T08:52:06.392Z,102131.00
2022-12-05T08:54:33.971Z,102140.59
2022-12-05T08:57:01.566Z,102138.91
2022-12-05T08:59:29.297Z,102144.91
2022-12-05T09:01:58.359Z,102135.06
2022-12-05T09:04:26.223Z,102134.97
2022-12-05T09:06:53.836Z,102134.13
2022-12-05T09:09:21.437Z,102146.38
2022-12-05T09:11:50.913Z,102128.84
2022-12-05T09:14:18.857Z,102132.31
2022-12-05T09:16:47.772Z,102137.47
2022-12-05T09:19:18.847Z,102129.44
2022-12-05T09:21:46.471Z,102134.72
2022-12-05T09:24:15.138Z,102146.00
2022-12-05T09:26:43.206Z,102136.41
2022-12-05T09:29:16.743Z,102141.78
2022-12-05T09:31:46.248Z,102152.50
2022-12-05T09:34:15.245Z,102141.94
2022-12-05T09:36:44.747Z,102146.38
2022-12-05T09:39:13.057Z,102137.47
2022-12-05T09:42:13.233Z,102138.56
2022-12-05T09:44:57.706Z,102146.47
2022-12-05T09:47:33.738Z,102124.28
2022-12-05T09:50:05.706Z,102153.31
2022-12-05T09:52:39.935Z,102130.41
2022-12-05T09:55:13.782Z,102142.75
2022-12-05T09:57:46.251Z,102129.56
2022-12-05T10:00:15.548Z,102137.47
2022-12-05T10:02:54.907Z,102133.41
2022-12-05T10:05:27.611Z,102129.69
2022-12-05T10:08:07.062Z,102152.59
2022-12-05T10:10:46.688Z,102142.03
2022-12-05T10:13:23.674Z,102130.53
2022-12-05T10:15:57.153Z,102119.13
2022-12-05T10:18:33.493Z,102133.88
2022-12-05T10:21:04.751Z,102118.19
2022-12-05T10:23:57.112Z,102158.56
2022-12-05T10:26:30.172Z,102125.13
2022-12-05T10:29:03.909Z,102124.28
2022-12-05T10:31:35.876Z,102116.34
2022-12-05T10:34:11.534Z,102118.28
2022-12-05T10:36:39.263Z,102119.13
2022-12-05T10:39:11.397Z,102126.09
2022-12-05T10:41:39.583Z,102107.72
2022-12-05T10:44:07.266Z,102097.06
2022-12-05T10:46:34.988Z,102109.41
2022-12-05T10:49:02.686Z,102098.88
2022-12-05T10:51:35.793Z,102098.88
2022-12-05T10:54:16.685Z,102090.81
2022-12-05T10:56:45.800Z,102084.69
2022-12-05T10:59:16.592Z,102096.94
2022-12-05T11:01:49.012Z,102082.78
2022-12-05T11:04:26.920Z,102093.09
2022-12-05T11:06:58.619Z,102087.84
2022-12-05T11:09:29.909Z,102100.19
2022-12-05T11:12:05.403Z,102085.28
2022-12-05T11:14:34.524Z,102080.84
2022-12-05T11:17:03.675Z,102101.13
2022-12-05T11:19:33.463Z,102066.47
2022-12-05T11:22:02.024Z,102076.28
2022-12-05T11:24:32.556Z,102073.66
2022-12-05T11:27:02.167Z,102069.97
2022-12-05T11:29:31.879Z,102063.84
2022-12-05T11:31:59.745Z,102074.41
2022-12-05T11:34:32.539Z,102062.03
2022-12-05T11:37:06.348Z,102059.25
2022-12-05T11:39:35.449Z,102058.31
2022-12-05T11:42:17.736Z,102060.34
2022-12-05T11:45:05.144Z,102058.31
2022-12-05T11:47:48.555Z,102061.06
2022-12-05T11:50:28.381Z,102044.28
2022-12-05T11:53:08.567Z,102064.31
2022-12-05T11:55:44.616Z,102051.25
2022-12-05T11:58:29.971Z,102060.94
2022-12-05T12:01:08.284Z,102068.97
2022-12-05T12:03:59.119Z,102058.19
2022-12-05T12:06:32.682Z,102060.09
2022-12-05T12:09:25.836Z,102057.56
2022-12-05T12:12:01.790Z,102062.03
2022-12-05T12:14:40.277Z,102048.84
2022-12-05T12:17:19.040Z,102053.13
2022-12-05T12:19:59.471Z,102039.84
2022-12-05T12:22:41.099Z,102041.75
2022-12-05T12:25:25.888Z,102048.72
2022-12-05T12:28:09.554Z,102034.66
2022-12-05T12:30:53.095Z,102051.34
2022-12-05T12:33:34.634Z,102039.69
2022-12-05T12:36:11.598Z,102036.47
2022-12-05T12:39:04.592Z,102029.28
2022-12-05T12:41:57.383Z,102026.50
2022-12-05T12:44:58.693Z,102041.38
2022-12-05T12:47:40.120Z,102029.28
2022-12-05T12:50:15.878Z,102034.41
2022-12-05T12:52:59.292Z,102001.34
2022-12-05T12:55:32.781Z,102012.59
2022-12-05T12:58:14.912Z,102022.06
2022-12-05T13:00:57.130Z,102016.94
2022-12-05T13:03:29.529Z,102007.19
2022-12-05T13:06:01.932Z,102016.09
2022-12-05T13:08:35.182Z,102003.50
2022-12-05T13:11:08.576Z,102006.94
2022-12-05T13:13:39.596Z,102006.13
2022-12-05T13:16:11.897Z,102003.59
2022-12-05T13:18:39.801Z,101998.31
2022-12-05T13:21:10.886Z,101999.03
2022-12-05T13:23:46.463Z,101991.94
2022-12-05T13:26:14.931Z,102000.84
2022-12-05T13:28:51.176Z,102002.03
2022-12-05T13:31:21.104Z,102004.53
2022-12-05T13:33:51.032Z,101993.19
2022-12-05T13:36:38.544Z,101990.66
2022-12-05T13:39:25.843Z,102006.38
2022-12-05T13:42:14.091Z,101992.34
2022-12-05T13:44:44.739Z,101991.34
2022-12-05T13:47:33.672Z,101997.63
2022-12-05T13:50:15.242Z,101994.00
2022-12-05T13:52:48.962Z,102007.56
2022-12-05T13:55:28.497Z,102006.63
2022-12-05T13:57:59.482Z,101995.31
2022-12-05T14:00:37.071Z,102005.03
2022-12-05T14:03:38.542Z,101987.31
2022-12-05T14:06:08.074Z,101990.66
2022-12-05T14:08:52.455Z,102010.06
2022-12-05T14:11:20.217Z,101995.06
2022-12-05T14:13:48.145Z,102016.94
2022-12-05T14:16:52.390Z,101999.25
2022-12-05T14:19:55.338Z,101995.81
2022-12-05T14:22:46.245Z,102006.63
2022-12-05T14:25:57.731Z,101995.94
2022-12-05T14:28:39.727Z,102001.91
2022-12-05T14:31:29.716Z,101988.97
2022-12-05T14:34:16.967Z,102000.34
2022-12-05T14:36:56.556Z,101997.47
2022-12-05T14:39:34.959Z,102000.13
2022-12-05T14:42:05.199Z,101980.78
2022-12-05T14:44:33.386Z,101988.47
2022-12-05T14:47:05.604Z,101992.19
2022-12-05T14:49:53.306Z,101994.97
2022-12-05T14:52:24.835Z,101991.25
2022-12-05T14:54:54.954Z,101980.09
2022-12-05T14:57:23.047Z,101978.16
2022-12-05T14:59:54.350Z,101979.84
2022-12-05T15:02:26.961Z,101992.94
2022-12-05T15:05:00.995Z,101982.47
2022-12-05T15:07:33.919Z,101982.72
2022-12-05T15:10:05.916Z,101988.00
2022-12-05T15:12:40.335Z,101988.00
2022-12-05T15:15:15.347Z,101978.41
2022-12-05T15:17:47.967Z,101978.53
2022-12-05T15:20:20.138Z,101979.75
2022-12-05T15:22:49.276Z,101992.94
2022-12-05T15:25:23.507Z,101998.09
2022-12-05T15:27:56.157Z,101999.19
2022-12-05T15:30:24.112Z,101993.66
2022-12-05T15:32:54.891Z,101974.22
2022-12-05T15:35:28.593Z,101990.66
2022-12-05T15:38:00.670Z,101985.38
2022-12-05T15:40:37.336Z,101992.34
2022-12-05T15:43:28.526Z,101983.69
2022-12-05T15:46:23.820Z,101998.56
2022-12-05T15:48:52.343Z,101990.41
2022-12-05T15:51:22.634Z,101981.53
2022-12-05T15:53:56.553Z,101985.97
2022-12-05T15:56:29.623Z,102008.16
2022-12-05T15:59:02.550Z,101992.34
2022-12-05T16:01:30.736Z,101985.00
2022-12-05T16:04:02.102Z,101974.69
2022-12-05T16:06:34.308Z,101980.53
2022-12-05T16:09:11.308Z,101980.09
2022-12-05T16:11:39.354Z,101974.09
2022-12-05T16:14:08.735Z,101985.50
2022-12-05T16:16:39.412Z,101980.22
2022-12-05T16:19:16.527Z,101984.53
2022-12-05T16:21:46.278Z,101974.94
2022-12-05T16:24:19.771Z,101975.66
2022-12-05T16:26:58.245Z,101985.38
2022-12-05T16:29:28.179Z,101975.91
2022-12-05T16:31:57.266Z,101978.66
2022-12-05T16:34:25.935Z,101981.28
2022-12-05T16:36:55.386Z,101992.44
2022-12-05T16:39:25.542Z,101974.94
2022-12-05T16:41:53.571Z,101985.25
2022-12-05T16:44:57.654Z,101979.13
2022-12-05T16:47:27.212Z,101978.16
2022-12-05T16:49:55.052Z,101986.22
2022-12-05T16:52:23.023Z,101981.78
2022-12-05T16:54:52.232Z,101975.75
2022-12-05T16:57:19.838Z,101981.03
2022-12-05T16:59:49.465Z,101979.38
2022-12-05T17:02:20.505Z,101979.75
2022-12-05T17:04:48.229Z,101974.94
2022-12-05T17:07:15.820Z,101969.06
2022-12-05T17:09:43.434Z,101980.09
2022-12-05T17:12:16.443Z,101973.97
2022-12-05T17:14:44.147Z,101973.84
2022-12-05T17:17:15.413Z,101972.56
2022-12-05T17:19:43.041Z,101976.50
2022-12-05T17:22:12.220Z,101970.13
2022-12-05T17:24:40.063Z,101969.28
2022-12-05T17:27:11.368Z,101969.03
2022-12-05T17:29:40.453Z,101969.03
2022-12-05T17:32:08.072Z,101961.38
2022-12-05T17:34:35.951Z,101967.59
2022-12-05T17:37:03.635Z,101966.78
2022-12-05T17:39:31.262Z,101969.53
2022-12-05T17:41:59.024Z,101967.75
2022-12-05T17:44:27.107Z,101969.78
2022-12-05T17:46:56.181Z,101964.16
2022-12-05T17:49:24.404Z,101969.31
2022-12-05T17:52:20.487Z,101980.97
2022-12-05T17:54:41.504Z,101979.63
2022-12-05T17:57:09.118Z,101980.47
2022-12-05T17:59:38.187Z,101977.00
2022-12-05T18:02:07.587Z,101986.25
2022-12-05T18:04:35.227Z,101985.25
2022-12-05T18:07:02.802Z,101979.88
2022-12-05T18:09:31.005Z,101982.88
2022-12-05T18:11:58.614Z,101978.19
2022-12-05T18:14:28.263Z,101979.97
2022-12-05T18:16:56.220Z,101984.31
2022-12-05T18:19:25.276Z,101979.03
2022-12-05T18:21:52.951Z,101984.41
2022-12-05T18:24:20.594Z,101986.69
2022-12-05T18:26:48.164Z,101986.56
2022-12-05T18:29:15.779Z,101977.00
2022-12-05T18:31:43.446Z,101977.84
2022-12-05T18:34:11.146Z,101985.84
2022-12-05T18:36:40.100Z,101984.16
2022-12-05T18:39:08.759Z,101981.53
2022-12-05T18:41:36.328Z,101984.16
2022-12-05T18:44:03.946Z,101984.31
2022-12-05T18:46:31.627Z,101981.53
2022-12-05T18:49:03.359Z,101992.81
2022-12-05T18:51:31.335Z,101983.34
2022-12-05T18:54:00.391Z,101982.28
2022-12-05T18:56:30.175Z,101985.00
2022-12-05T18:58:59.851Z,101983.59
2022-12-05T19:01:28.665Z,101980.13
2022-12-05T19:03:57.791Z,101988.03
2022-12-05T19:06:27.940Z,101989.69
2022-12-05T19:08:57.198Z,101982.28
2022-12-05T19:11:27.209Z,101973.16
2022-12-05T19:13:56.406Z,101972.56
2022-12-05T19:16:24.446Z,101972.44
2022-12-05T19:18:55.306Z,101979.38
2022-12-05T19:21:23.061Z,101981.91
2022-12-05T19:23:50.687Z,101981.22
2022-12-05T19:26:18.575Z,101981.06
2022-12-05T19:28:47.891Z,101977.47
2022-12-05T19:31:18.299Z,101976.88
2022-12-05T19:33:47.640Z,101980.38
2022-12-05T19:36:17.246Z,101976.03
2022-12-05T19:38:47.563Z,101980.47
2022-12-05T19:41:17.336Z,101978.44
2022-12-05T19:43:47.072Z,101982.75
2022-12-05T19:46:17.146Z,101982.63
2022-12-05T19:48:44.772Z,101988.75
2022-12-05T19:51:13.274Z,101983.59
2022-12-05T19:53:42.909Z,101980.13
2022-12-05T19:56:14.647Z,101976.63
2022-12-05T19:58:42.911Z,101971.47
2022-12-05T20:01:13.807Z,101984.56
2022-12-05T20:03:41.976Z,101995.22
2022-12-05T20:06:10.851Z,101980.53
2022-12-05T20:08:39.262Z,101981.28
2022-12-05T20:11:08.406Z,101988.22
2022-12-05T20:13:52.294Z,101988.34
2022-12-05T20:16:22.904Z,101981.38
2022-12-05T20:18:51.173Z,101985.00
2022-12-05T20:21:21.964Z,101987.50
2022-12-05T20:23:49.930Z,101978.50
2022-12-05T20:26:19.722Z,101980.22
2022-12-05T20:28:47.985Z,101980.91
2022-12-05T20:31:17.667Z,101972.38
2022-12-05T20:33:46.789Z,101972.38
2022-12-05T20:36:17.080Z,101969.75
2022-12-05T20:38:45.382Z,101976.25
2022-12-05T20:41:15.471Z,101975.50
2022-12-05T20:43:43.788Z,101965.94
2022-12-05T20:46:15.130Z,101981.38
2022-12-05T20:48:43.255Z,101964.47
2022-12-05T20:51:14.218Z,101959.94
2022-12-05T20:53:43.498Z,101958.47
2022-12-05T20:56:13.023Z,101950.56
2022-12-05T20:58:41.504Z,101951.19
2022-12-05T21:01:10.626Z,101942.19
2022-12-05T21:03:41.162Z,101950.22
2022-12-05T21:06:09.567Z,101948.69
2022-12-05T21:08:38.716Z,101950.47
2022-12-05T21:11:07.417Z,101946.16
2022-12-05T21:13:35.538Z,101941.88
2022-12-05T21:16:04.118Z,101944.53
2022-12-05T21:18:32.159Z,101942.69
2022-12-05T21:21:01.962Z,101942.59
2022-12-05T21:23:30.144Z,101945.22
2022-12-05T21:26:02.975Z,101935.38
2022-12-05T21:28:31.166Z,101936.34
2022-12-05T21:31:05.704Z,65034.22
2022-12-05T21:33:33.359Z,65034.22
2022-12-05T21:36:01.136Z,65034.22
2022-12-05T21:38:28.767Z,65034.22
2022-12-05T21:40:56.352Z,65034.22
2022-12-05T21:43:25.299Z,65034.22
2022-12-05T21:45:53.797Z,65034.22
2022-12-05T21:48:21.583Z,65034.22
2022-12-05T21:50:49.655Z,65034.22
2022-12-05T21:53:17.331Z,65034.22
2022-12-05T21:55:44.987Z,65034.22
2022-12-05T21:58:12.962Z,65034.22
2022-12-05T22:00:43.071Z,65034.22
2022-12-05T22:03:15.195Z,65034.22
2022-12-05T22:05:42.956Z,65034.22
2022-12-05T22:08:10.586Z,65034.22
2022-12-05T22:10:38.983Z,65034.22
2022-12-05T22:13:06.607Z,65034.22
2022-12-05T22:15:34.611Z,65034.22
2022-12-05T22:18:03.650Z,65034.22
2022-12-05T22:20:31.263Z,65034.22
2022-12-05T22:22:58.876Z,65034.22
2022-12-05T22:25:26.488Z,65034.22
2022-12-05T22:27:56.392Z,65034.22
2022-12-05T22:30:24.162Z,65034.22
2022-12-05T22:32:54.015Z,65034.22
2022-12-05T22:35:23.007Z,65034.22
2022-12-05T22:37:50.620Z,65034.22
2022-12-05T22:40:18.230Z,65034.22
2022-12-05T22:42:45.831Z,65034.22
2022-12-05T22:45:13.459Z,65034.22
2022-12-05T22:47:41.041Z,65034.22
2022-12-05T22:50:09.659Z,65034.22
2022-12-05T22:52:38.638Z,65034.22
2022-12-05T22:55:07.007Z,65034.22
2022-12-05T22:57:34.598Z,65034.22
2022-12-05T23:00:02.248Z,65034.22
2022-12-05T23:02:29.920Z,65034.22
2022-12-05T23:04:57.516Z,65034.22
2022-12-05T23:07:25.117Z,65034.22
2022-12-05T23:09:54.067Z,65034.22
2022-12-05T23:12:21.684Z,65034.22
2022-12-05T23:14:49.323Z,65034.22
2022-12-05T23:17:16.980Z,65034.22
2022-12-05T23:19:44.579Z,65034.22
2022-12-05T23:22:12.167Z,65034.22
2022-12-05T23:24:39.787Z,65034.22
2022-12-05T23:27:08.730Z,65034.22
2022-12-05T23:29:36.412Z,65034.22
2022-12-05T23:32:04.003Z,65034.22
2022-12-05T23:34:31.611Z,65034.22
2022-12-05T23:36:59.199Z,65034.22
2022-12-05T23:39:26.805Z,65034.22
2022-12-05T23:41:54.472Z,65034.22
2022-12-05T23:44:23.438Z,65034.22
2022-12-05T23:46:51.110Z,65034.22
2022-12-05T23:49:18.730Z,65034.22
2022-12-05T23:51:46.321Z,65034.22
2022-12-05T23:54:13.935Z,65034.22
2022-12-05T23:56:41.635Z,65034.22
2022-12-05T23:59:09.632Z,65034.22
